CYEG/YEG METAR and TAF weather

Enter ICAO airport designator
Station Type Date Time Source
CYEG METAR 2020/11/25 23:00 UTC NOAA

CYEG 252300Z 25005KT 20SM FEW060 SCT090 SCT210 M06/M08 A2969 RMK SC1AC2CI1 CI TR SLP090


Station Type Date Time Source
CYEG Decoded METAR 2020/11/25 23:00 UTC NOAA

Edmonton International, Alta., Canada (CYEG) 53-18N 113-35W 723M
Nov 25, 2020 - 06:00 PM EST / 2020.11.25 2300 UTC
Wind: from the WSW (250 degrees) at 6 MPH (5 KT):0
Visibility: 20 mile(s):0
Sky conditions: partly cloudy
Temperature: 21 F (-6 C)
Windchill: 14 F (-10 C):1
Dew Point: 17 F (-8 C)
Relative Humidity: 85%
Pressure (altimeter): 29.69 in. Hg (1005 hPa)
ob: CYEG 252300Z 25005KT 20SM FEW060 SCT090 SCT210 M06/M08 A2969 RMK SC1AC2CI1 CI TR SLP090
cycle: 23

Station Type Date Time Source
CYEG TAF 2020/11/25 21:40 UTC NOAA

TAF CYEG 252038Z 2521/2618 26008KT P6SM FEW060 FEW200
FM260200 22010KT P6SM BKN060
FM260500 29012G22KT P6SM -SN SCT010 BKN060
TEMPO 2605/2610 2SM -SHSN BKN010 OVC060
FM261000 29010KT P6SM SCT060
FM261600 22010KT P6SM SCT020 BKN050
RMK NXT FCST BY 260000Z

Example: see airport list